Time;durP1;ratioP1;P1;durP2;ratioP2;P2;SDS_P1;SDS_P2;PMS_P1;PMS_P2;Temp;Humidity;BMP_temperature;BMP_pressure;BME280_temperature;BME280_humidity;BME280_pressure;Samples;Min_cycle;Max_cycle;Signal;HPM_P1;HPM_P2
2022/07/19 00:02:00;;;;;;;5.03;2.40;;;20.10;74.30;;;20.19;55.44;97591.84;4953531;28;20584;-39
2022/07/19 00:04:25;;;;;;;4.20;2.35;;;20.10;74.20;;;20.14;55.46;97594.00;4953248;28;20043;-39
2022/07/19 00:06:51;;;;;;;4.05;2.22;;;20.10;74.30;;;20.12;56.51;97595.09;4954587;28;20049;-39
2022/07/19 00:09:17;;;;;;;3.40;2.38;;;20.00;75.10;;;20.06;56.82;97601.72;4948190;28;20037;-39
2022/07/19 00:11:42;;;;;;;2.92;2.53;;;20.00;75.40;;;20.00;57.69;97596.84;4949912;28;20746;-39
2022/07/19 00:14:08;;;;;;;5.03;2.50;;;20.00;76.10;;;19.95;57.55;97598.97;4956120;28;20069;-39
2022/07/19 00:16:34;;;;;;;6.40;2.58;;;19.90;75.80;;;19.87;57.76;97591.50;4953024;28;20313;-39
2022/07/19 00:18:59;;;;;;;3.60;2.15;;;19.90;76.00;;;19.83;58.11;97590.03;4960101;28;20023;-39
2022/07/19 00:21:25;;;;;;;4.93;2.55;;;19.80;76.20;;;19.77;58.36;97588.63;4961733;28;20089;-39
2022/07/19 00:23:51;;;;;;;2.65;2.05;;;19.70;76.40;;;19.61;58.08;97578.16;4963876;28;20259;-39
2022/07/19 00:26:16;;;;;;;3.75;2.65;;;19.60;76.40;;;19.65;58.47;97587.66;4960371;28;20034;-39
2022/07/19 00:28:42;;;;;;;3.58;2.38;;;19.60;76.80;;;19.62;58.72;97593.22;4963559;28;20030;-39
2022/07/19 00:31:08;;;;;;;3.83;2.30;;;19.60;76.90;;;19.56;59.39;97587.44;4954613;28;20090;-39
2022/07/19 00:33:34;;;;;;;2.97;2.03;;;19.50;77.20;;;19.38;59.61;97568.19;4962272;28;20046;-39
2022/07/19 00:35:59;;;;;;;3.13;2.10;;;19.40;77.50;;;19.40;59.93;97580.50;4957197;28;20027;-39
2022/07/19 00:38:25;;;;;;;3.90;2.38;;;19.40;77.90;;;19.40;60.59;97585.00;4959512;28;20031;-39
2022/07/19 00:40:51;;;;;;;5.38;2.50;;;19.30;78.40;;;19.18;61.74;97569.59;4958004;28;22702;-39
2022/07/19 00:43:16;;;;;;;2.45;2.20;;;19.30;79.30;;;19.30;61.14;97586.59;4957630;28;20919;-39
2022/07/19 00:45:42;;;;;;;5.35;2.13;;;19.20;79.00;;;19.25;61.26;97593.09;4954418;28;20038;-39
2022/07/19 00:48:08;;;;;;;3.70;2.45;;;19.20;79.00;;;19.21;60.96;97593.44;4962190;28;20031;-39
2022/07/19 00:50:34;;;;;;;3.35;2.25;;;19.20;79.00;;;19.21;61.30;97599.63;4961876;28;20027;-39
2022/07/19 00:53:04;;;;;;;3.38;2.40;;;19.10;79.10;;;19.17;61.69;97591.94;4961937;28;20039;-39
2022/07/19 00:55:33;;;;;;;4.15;2.20;;;19.10;79.20;;;19.13;61.93;97595.78;4952473;28;20038;-39
2022/07/19 00:58:00;;;;;;;3.90;2.45;;;19.10;79.60;;;19.11;62.08;97595.88;4952957;28;20027;-39
2022/07/19 01:00:29;;;;;;;4.18;2.00;;;19.00;79.70;;;19.05;62.70;97597.16;4950646;28;20035;-39
2022/07/19 01:02:55;;;;;;;3.72;2.47;;;19.00;80.10;;;19.02;63.06;97597.38;4950995;28;20801;-39
2022/07/19 01:05:21;;;;;;;3.90;2.58;;;19.00;80.30;;;19.00;63.12;97590.41;4955235;28;20436;-39
2022/07/19 01:07:47;;;;;;;3.25;2.35;;;18.90;80.50;;;18.99;63.17;97591.41;4953075;28;20034;-39
2022/07/19 01:10:14;;;;;;;3.50;2.17;;;18.90;80.80;;;18.98;63.86;97595.00;4941942;28;20066;-39
2022/07/19 01:12:41;;;;;;;3.30;2.47;;;18.90;81.10;;;18.98;64.12;97592.34;4961323;28;20617;-39
2022/07/19 01:15:27;;;;;;;3.72;2.22;;;18.90;81.50;;;18.97;63.38;97588.81;4953977;28;20077;-39
2022/07/19 01:17:53;;;;;;;3.05;2.40;;;19.00;81.00;;;18.99;62.55;97584.22;4955085;28;20030;-39
2022/07/19 01:20:22;;;;;;;5.70;2.20;;;19.00;80.50;;;19.07;61.89;97599.72;4960849;28;20039;-39
2022/07/19 01:22:48;;;;;;;3.13;2.10;;;19.00;80.00;;;19.05;62.37;97593.63;4961694;28;20042;-39
2022/07/19 01:25:17;;;;;;;2.58;2.20;;;19.00;80.20;;;19.01;63.45;97589.47;4948652;28;20031;-39
2022/07/19 01:27:48;;;;;;;2.85;2.10;;;19.00;80.90;;;18.96;63.43;97591.59;4939832;28;20105;-39
2022/07/19 01:30:18;;;;;;;6.30;2.37;;;18.90;81.00;;;18.91;63.28;97591.03;4955466;28;20118;-39
2022/07/19 01:32:43;;;;;;;3.38;2.30;;;18.90;81.00;;;18.89;62.43;97591.16;4960355;28;20416;-40
2022/07/19 01:35:09;;;;;;;2.72;2.17;;;18.90;80.50;;;18.92;62.85;97593.63;4951607;28;20177;-39
2022/07/19 01:37:36;;;;;;;2.40;2.20;;;18.90;80.60;;;18.88;62.97;97590.28;4961094;28;20039;-39
2022/07/19 01:40:04;;;;;;;3.33;2.30;;;18.80;80.70;;;18.84;63.50;97587.91;4965237;28;20109;-39
2022/07/19 01:42:30;;;;;;;2.60;2.15;;;18.80;81.10;;;18.72;63.92;97572.69;4960322;28;20039;-39
2022/07/19 01:44:56;;;;;;;5.22;2.30;;;18.80;81.50;;;18.72;64.94;97580.69;4961462;28;20033;-39
2022/07/19 01:47:21;;;;;;;4.10;2.25;;;18.70;82.30;;;18.69;65.82;97589.78;4962468;28;20042;-39
2022/07/19 01:49:47;;;;;;;3.90;2.42;;;18.60;82.90;;;18.66;65.75;97592.66;4965085;28;20034;-39
2022/07/19 01:52:13;;;;;;;4.63;2.28;;;18.60;82.80;;;18.64;65.44;97589.22;4962981;28;20048;-39
2022/07/19 01:54:38;;;;;;;4.68;2.30;;;18.60;82.70;;;18.67;64.30;97591.72;4959027;28;20031;-39
2022/07/19 01:57:04;;;;;;;3.50;2.30;;;18.60;82.10;;;18.72;63.50;97594.06;4963294;28;20033;-39
2022/07/19 01:59:30;;;;;;;2.78;1.98;;;18.60;81.60;;;18.70;63.44;97589.69;4969297;28;20038;-39
2022/07/19 02:01:56;;;;;;;3.65;2.17;;;18.70;81.50;;;18.69;63.19;97590.63;4960672;28;20081;-39
2022/07/19 02:04:21;;;;;;;7.07;2.10;;;18.60;81.40;;;18.67;63.31;97586.38;4960342;28;20033;-40
2022/07/19 02:06:47;;;;;;;2.55;1.98;;;18.70;81.30;;;18.50;63.53;97560.75;4959848;28;20038;-39
2022/07/19 02:09:12;;;;;;;3.03;2.13;;;18.60;81.40;;;18.61;63.73;97576.94;4962227;28;20035;-39
2022/07/19 02:11:38;;;;;;;2.95;2.03;;;18.60;81.60;;;18.56;63.97;97580.91;4939423;28;20129;-39
2022/07/19 02:14:06;;;;;;;3.15;2.08;;;18.50;81.70;;;18.54;63.79;97572.09;4961221;28;20031;-39
2022/07/19 02:16:32;;;;;;;3.35;1.85;;;18.50;81.90;;;18.47;63.85;97577.84;4959619;28;20031;-39
2022/07/19 02:18:58;;;;;;;2.60;2.20;;;18.50;81.90;;;18.51;62.97;97579.38;4963062;28;20030;-39
2022/07/19 02:21:24;;;;;;;2.95;2.00;;;18.50;81.40;;;18.56;62.69;97575.56;4958566;28;20085;-39
2022/07/19 02:23:49;;;;;;;3.10;2.05;;;18.50;81.30;;;18.59;61.79;97576.19;4958887;28;20303;-40
2022/07/19 02:26:15;;;;;;;2.92;1.95;;;18.60;80.80;;;18.57;61.81;97562.06;4959567;28;20506;-40
2022/07/19 02:28:41;;;;;;;2.00;1.63;;;18.60;80.70;;;18.56;61.96;97571.06;4961682;28;20128;-39
2022/07/19 02:31:07;;;;;;;2.08;1.88;;;18.50;80.70;;;18.50;62.27;97563.44;4960187;28;20042;-39
2022/07/19 02:33:32;;;;;;;3.08;1.90;;;18.50;81.00;;;18.48;63.23;97571.56;4959442;28;20082;-39
2022/07/19 02:35:58;;;;;;;1.98;1.60;;;18.40;81.40;;;18.43;64.21;97568.34;4957357;28;20042;-39
2022/07/19 02:38:24;;;;;;;2.75;2.20;;;18.40;82.20;;;18.31;64.86;97551.31;4964877;28;20089;-39
2022/07/19 02:40:49;;;;;;;2.72;2.17;;;18.30;82.50;;;18.31;66.22;97561.16;4959207;28;20555;-40
2022/07/19 02:43:15;;;;;;;3.42;2.20;;;18.30;83.60;;;18.25;67.20;97564.19;4958916;28;20502;-40
2022/07/19 02:45:41;;;;;;;2.90;2.20;;;18.20;84.20;;;18.16;67.66;97567.47;4960911;28;20050;-39
2022/07/19 02:48:09;;;;;;;2.70;2.33;;;18.10;84.70;;;18.07;69.96;97564.47;4963962;28;20037;-39
2022/07/19 02:50:35;;;;;;;3.13;2.25;;;18.10;86.20;;;18.04;70.81;97563.81;4958322;28;21417;-39
2022/07/19 02:53:01;;;;;;;3.65;2.28;;;18.00;86.70;;;17.97;70.75;97559.81;4952720;28;20045;-39
2022/07/19 02:55:27;;;;;;;4.95;2.47;;;18.00;86.90;;;17.90;70.76;97562.00;4957899;28;20038;-39
2022/07/19 02:57:53;;;;;;;3.65;2.45;;;17.90;86.90;;;17.87;71.19;97556.88;4954975;28;20049;-39
2022/07/19 03:00:19;;;;;;;3.15;2.50;;;17.90;87.20;;;17.82;71.78;97564.28;4962182;28;20058;-39
2022/07/19 03:02:44;;;;;;;3.50;2.50;;;17.80;87.60;;;17.82;72.05;97564.28;4959304;28;20030;-39
2022/07/19 03:05:10;;;;;;;3.75;2.35;;;17.80;87.90;;;17.78;72.09;97573.44;4960126;28;23537;-39
2022/07/19 03:07:36;;;;;;;3.13;2.42;;;17.80;88.00;;;17.74;72.52;97559.44;4956102;28;20065;-39
2022/07/19 03:10:03;;;;;;;5.28;2.63;;;17.80;88.30;;;17.67;72.82;97542.94;4960078;28;20518;-39
2022/07/19 03:12:28;;;;;;;4.15;2.50;;;17.70;88.60;;;17.68;73.04;97549.16;4956812;28;20035;-39
2022/07/19 03:14:54;;;;;;;3.63;2.47;;;17.70;88.70;;;17.61;72.89;97538.03;4959949;28;20598;-40
2022/07/19 03:17:20;;;;;;;3.65;2.17;;;17.60;89.50;;;17.64;73.11;97545.84;4962143;28;20039;-39
2022/07/19 03:19:46;;;;;;;3.17;1.98;;;17.60;88.90;;;17.61;73.63;97545.19;4955202;28;20149;-39
2022/07/19 03:22:12;;;;;;;3.83;2.40;;;17.60;89.30;;;17.61;73.33;97546.03;4960319;28;20031;-39
2022/07/19 03:24:38;;;;;;;3.10;2.63;;;17.60;89.30;;;17.61;73.74;97545.19;4961682;28;20753;-39
2022/07/19 03:27:03;;;;;;;3.17;2.20;;;17.60;89.50;;;17.60;73.47;97546.13;4957605;28;20044;-39
2022/07/19 03:29:29;;;;;;;3.83;2.35;;;17.50;89.40;;;17.59;73.37;97549.75;4957431;28;20034;-39
2022/07/19 03:31:55;;;;;;;3.42;2.35;;;17.50;89.40;;;17.58;73.18;97559.53;4989364;23;20050;-48
2022/07/19 03:34:20;;;;;;;4.07;2.45;;;17.60;89.60;;;17.58;73.27;97554.19;4999764;28;20030;-49
2022/07/19 03:36:46;;;;;;;3.22;2.50;;;17.60;89.60;;;17.57;74.05;97552.50;4999089;28;20579;-47
2022/07/19 03:39:12;;;;;;;3.15;2.28;;;17.50;90.00;;;17.57;74.19;97547.19;4981354;28;20065;-48
2022/07/19 03:41:37;;;;;;;4.45;2.50;;;17.50;90.00;;;17.56;74.14;97553.44;5000928;28;20025;-48
2022/07/19 03:44:03;;;;;;;3.65;2.55;;;17.60;90.10;;;17.56;74.59;97551.63;4988586;28;20437;-47
2022/07/19 03:46:29;;;;;;;3.42;2.50;;;17.60;90.20;;;17.54;74.53;97552.69;4997856;28;20030;-51
2022/07/19 03:48:56;;;;;;;6.47;2.40;;;17.60;90.20;;;17.56;75.04;97554.28;4998330;28;20385;-51
2022/07/19 03:51:23;;;;;;;3.28;2.35;;;17.60;90.30;;;17.55;75.57;97555.28;5000705;28;20088;-48
2022/07/19 03:53:49;;;;;;;5.43;2.72;;;17.60;90.60;;;17.54;75.47;97550.88;4995218;28;20048;-47
2022/07/19 03:56:15;;;;;;;8.38;2.38;;;17.50;90.50;;;17.49;76.29;97547.63;4998512;28;20034;-49
2022/07/19 03:58:41;;;;;;;3.47;2.60;;;17.50;90.80;;;17.50;76.24;97554.69;5000954;28;20029;-49
2022/07/19 04:01:06;;;;;;;4.65;2.38;;;17.50;90.80;;;17.50;76.31;97553.84;4999575;28;20038;-53
2022/07/19 04:03:40;;;;;;;3.60;2.00;;;17.50;90.80;;;17.50;75.73;97553.84;4996549;28;20037;-47
2022/07/19 04:06:07;;;;;;;2.85;2.30;;;17.50;90.70;;;17.52;74.85;97562.59;5000901;28;20022;-50
2022/07/19 04:08:33;;;;;;;5.43;2.28;;;17.50;90.60;;;17.50;74.60;97553.84;4972580;28;20191;-49
2022/07/19 04:10:59;;;;;;;2.58;2.30;;;17.50;90.40;;;17.53;74.35;97565.19;4998241;28;20040;-52
2022/07/19 04:13:25;;;;;;;3.53;2.40;;;17.50;90.40;;;17.56;74.72;97558.78;4998280;28;20037;-49
2022/07/19 04:15:51;;;;;;;2.78;2.25;;;17.50;90.50;;;17.58;74.74;97570.22;5003083;28;20034;-52
2022/07/19 04:18:16;;;;;;;5.85;2.20;;;17.60;90.50;;;17.59;75.17;97561.25;4998837;28;20060;-52
2022/07/19 04:20:42;;;;;;;3.85;2.10;;;17.60;90.70;;;17.64;74.41;97560.97;4994957;28;20048;-51
2022/07/19 04:23:08;;;;;;;3.42;2.00;;;17.60;90.50;;;17.69;73.22;97564.19;4997641;28;20034;-51
2022/07/19 04:25:34;;;;;;;4.97;2.33;;;17.70;90.30;;;17.74;73.51;97565.63;4995138;28;20076;-51
2022/07/19 04:28:01;;;;;;;2.88;2.17;;;17.70;90.20;;;17.80;73.30;97580.41;4996402;28;20061;-51
2022/07/19 04:30:28;;;;;;;5.65;2.33;;;17.80;90.20;;;17.84;73.16;97573.06;4999756;28;20163;-50
2022/07/19 04:32:53;;;;;;;3.70;2.60;;;17.90;90.20;;;17.90;73.65;97572.69;4998378;28;20036;-51
2022/07/19 04:35:20;;;;;;;3.53;2.30;;;17.90;90.20;;;17.98;73.94;97573.06;4999013;28;20041;-52
2022/07/19 04:37:45;;;;;;;3.20;2.35;;;18.00;90.40;;;18.04;73.72;97575.31;4997236;28;20057;-49
2022/07/19 04:40:12;;;;;;;3.47;2.83;;;18.10;90.30;;;18.10;73.77;97577.59;4996986;28;20494;-50
2022/07/19 04:42:38;;;;;;;6.47;2.80;;;18.10;90.30;;;18.17;73.37;97569.19;4993287;28;20030;-51
2022/07/19 04:45:05;;;;;;;5.15;3.05;;;18.20;90.20;;;18.22;73.48;97578.63;4992305;28;20045;-48
2022/07/19 04:47:31;;;;;;;3.15;2.47;;;18.20;90.30;;;18.28;73.78;97588.88;4993369;28;20236;-52
2022/07/19 04:49:56;;;;;;;3.20;2.40;;;18.30;90.30;;;18.30;73.84;97570.09;4998286;28;20568;-49
2022/07/19 04:52:22;;;;;;;4.82;2.45;;;18.30;90.40;;;18.39;73.51;97577.50;4996254;28;20033;-51
2022/07/19 04:54:48;;;;;;;4.60;2.47;;;18.40;90.40;;;18.49;72.37;97572.41;4989072;28;20100;-48
2022/07/19 04:57:14;;;;;;;5.80;2.60;;;18.50;90.10;;;18.58;71.53;97577.16;4995137;28;20057;-48
2022/07/19 04:59:40;;;;;;;3.35;2.47;;;18.60;89.50;;;18.68;70.52;97574.69;4998383;28;20079;-50
2022/07/19 05:02:06;;;;;;;3.22;2.28;;;18.70;88.90;;;18.79;70.17;97571.31;5000261;28;20117;-48
2022/07/19 05:04:32;;;;;;;4.60;2.50;;;18.80;88.80;;;18.87;69.57;97569.03;4998608;28;20112;-48
2022/07/19 05:06:58;;;;;;;3.53;2.33;;;18.90;88.40;;;18.97;68.95;97570.13;5000888;28;20109;-47
2022/07/19 05:09:28;;;;;;;5.47;2.38;;;19.00;87.80;;;19.09;68.21;97571.06;4997416;28;20044;-49
2022/07/19 05:11:55;;;;;;;4.68;2.55;;;19.10;87.30;;;19.21;67.51;97577.41;4996452;28;20030;-48
2022/07/19 05:14:21;;;;;;;5.18;2.90;;;19.20;86.80;;;19.33;66.91;97578.38;4998381;28;20034;-50
2022/07/19 05:16:49;;;;;;;3.72;2.25;;;19.30;86.20;;;19.44;66.18;97576.66;4999110;28;20126;-49
2022/07/19 05:19:16;;;;;;;4.10;2.35;;;19.50;85.70;;;19.57;65.33;97578.47;5001942;28;20038;-51
2022/07/19 05:21:42;;;;;;;3.90;2.30;;;19.60;85.30;;;19.70;65.47;97570.41;5001361;28;20351;-48
2022/07/19 05:24:07;;;;;;;5.00;3.08;;;19.70;85.10;;;19.88;63.64;97571.78;5001895;28;20041;-47
2022/07/19 05:26:33;;;;;;;2.28;1.92;;;19.90;84.40;;;20.10;63.25;97567.56;5002214;28;20577;-50
2022/07/19 05:29:00;;;;;;;5.60;3.17;;;20.00;83.80;;;20.36;62.38;97574.53;5007385;28;20076;-49
2022/07/19 05:31:25;;;;;;;4.32;2.50;;;20.20;83.40;;;20.71;60.89;97579.13;5002597;28;20259;-49
2022/07/19 05:33:51;;;;;;;3.33;2.60;;;20.50;83.80;;;21.15;59.62;97576.69;5001593;28;20277;-48
2022/07/19 05:36:17;;;;;;;3.38;2.40;;;20.80;82.00;;;21.61;57.47;97570.47;5003823;28;20178;-50
2022/07/19 05:38:43;;;;;;;5.60;2.38;;;21.20;81.00;;;21.84;55.88;97582.06;5001712;28;20038;-49
2022/07/19 05:41:10;;;;;;;6.90;2.75;;;21.40;79.70;;;21.88;54.98;97578.13;5006011;28;20060;-48
2022/07/19 05:43:38;;;;;;;3.00;2.33;;;21.60;78.50;;;21.94;54.26;97582.16;5002807;28;20060;-52
2022/07/19 05:46:05;;;;;;;5.38;2.80;;;21.60;77.30;;;22.17;52.39;97587.50;5006248;28;20482;-50
2022/07/19 05:48:31;;;;;;;4.43;2.80;;;21.80;75.90;;;22.51;50.99;97579.41;5004093;28;20165;-50
2022/07/19 05:50:58;;;;;;;6.40;2.33;;;22.00;75.20;;;22.82;49.38;97573.16;5004105;28;20041;-49
2022/07/19 05:53:24;;;;;;;5.65;2.72;;;22.20;74.10;;;23.00;48.07;97581.50;4998113;28;20506;-48
2022/07/19 05:55:50;;;;;;;4.13;2.17;;;22.50;72.50;;;23.16;47.94;97572.16;5006466;28;20522;-51
2022/07/19 05:58:17;;;;;;;7.13;2.70;;;22.60;72.00;;;23.23;47.54;97573.34;5002378;28;20045;-48
2022/07/19 06:03:31;;;;;;;6.82;2.40;;;23.00;70.90;;;23.34;47.18;97570.56;5004861;28;20060;-48
2022/07/19 06:05:57;;;;;;;6.03;3.30;;;23.00;70.40;;;23.33;47.20;97571.56;5002930;28;20378;-50
2022/07/19 06:08:23;;;;;;;4.05;2.47;;;23.10;70.30;;;23.36;47.33;97576.66;5002605;28;20025;-51
2022/07/19 06:10:49;;;;;;;2.85;2.20;;;23.10;70.40;;;23.46;47.28;97570.53;5005889;28;20047;-52
2022/07/19 06:13:15;;;;;;;5.03;3.50;;;23.20;70.40;;;23.50;46.22;97567.41;5007338;28;20049;-50
2022/07/19 06:15:40;;;;;;;4.65;2.90;;;23.30;69.40;;;23.50;46.31;97555.78;5000544;28;20030;-51
2022/07/19 06:18:06;;;;;;;4.00;2.90;;;23.40;69.20;;;23.71;45.20;97580.00;5004976;28;20102;-48
2022/07/19 06:20:32;;;;;;;3.53;2.45;;;23.50;67.90;;;23.78;45.45;97576.63;5002859;28;20478;-50
2022/07/19 06:22:57;;;;;;;2.42;2.05;;;23.60;68.00;;;23.88;45.62;97576.69;4999844;28;20475;-48
2022/07/19 06:25:23;;;;;;;3.35;2.40;;;23.60;68.10;;;23.99;45.11;97586.50;5002722;28;20314;-51
2022/07/19 06:27:49;;;;;;;4.28;2.45;;;23.70;67.70;;;24.12;45.14;97592.50;5003784;28;20056;-49
2022/07/19 06:30:15;;;;;;;4.97;2.78;;;23.90;67.50;;;24.22;44.57;97576.34;5005024;28;20112;-50
2022/07/19 06:32:40;;;;;;;8.02;2.55;;;24.00;66.90;;;24.32;43.70;97581.78;5009950;28;20053;-49
2022/07/19 06:35:07;;;;;;;3.20;2.45;;;24.10;66.40;;;24.42;43.92;97584.50;5004508;28;20103;-49
2022/07/19 06:37:32;;;;;;;2.75;2.20;;;24.20;65.90;;;24.52;43.83;97578.13;5003543;28;20033;-50
2022/07/19 06:39:58;;;;;;;5.88;2.83;;;24.30;65.80;;;24.60;42.91;97576.59;5004071;28;20048;-48
2022/07/19 06:42:24;;;;;;;3.65;2.20;;;24.50;64.70;;;24.70;42.89;97577.47;5004610;28;20022;-48
2022/07/19 06:44:49;;;;;;;6.60;2.58;;;24.60;64.60;;;24.81;42.05;97580.00;5000547;28;20062;-52
2022/07/19 06:47:15;;;;;;;5.60;2.50;;;24.70;63.80;;;24.88;41.74;97581.16;5005170;28;20108;-52
2022/07/19 06:49:41;;;;;;;4.05;2.50;;;24.70;63.20;;;24.97;41.96;97584.84;5002065;28;20034;-51
2022/07/19 06:52:07;;;;;;;3.30;2.35;;;24.80;63.10;;;25.08;41.65;97583.84;5002860;28;20065;-51
2022/07/19 06:54:32;;;;;;;5.53;2.33;;;24.90;62.80;;;25.15;41.57;97576.88;4997812;28;20021;-48
2022/07/19 06:56:58;;;;;;;4.07;2.33;;;25.00;62.70;;;25.27;41.07;97574.91;5002773;28;20561;-52
2022/07/19 06:59:24;;;;;;;3.83;2.30;;;25.10;62.10;;;25.38;40.81;97584.69;5002704;28;20030;-49
2022/07/19 07:01:50;;;;;;;6.32;3.10;;;25.20;61.90;;;25.48;39.91;97580.09;5003090;28;20025;-50
2022/07/19 07:04:15;;;;;;;2.70;2.42;;;25.30;60.80;;;25.62;40.32;97576.09;5001855;28;20335;-50
2022/07/19 07:06:41;;;;;;;10.52;3.20;;;25.40;60.80;;;25.76;39.34;97580.19;5003393;28;20587;-52
2022/07/19 07:09:07;;;;;;;6.55;2.92;;;25.60;59.70;;;25.89;39.42;97580.69;5002468;28;20116;-52
2022/07/19 07:11:32;;;;;;;4.13;2.67;;;25.70;60.00;;;25.99;38.55;97576.13;5004312;28;20030;-50
2022/07/19 07:13:58;;;;;;;13.43;2.70;;;25.80;59.60;;;26.05;38.82;97563.84;5002487;28;20414;-49
2022/07/19 07:16:24;;;;;;;5.65;2.38;;;25.90;59.30;;;26.19;38.55;97576.88;5000452;28;20037;-50
2022/07/19 07:18:50;;;;;;;7.13;2.47;;;26.00;59.00;;;26.22;37.67;97571.16;5002194;28;20092;-51
2022/07/19 07:21:15;;;;;;;4.22;2.30;;;26.10;58.30;;;26.32;38.03;97572.97;4999461;28;20034;-53
2022/07/19 07:23:41;;;;;;;4.78;2.53;;;26.10;58.10;;;26.43;37.35;97581.72;5002945;28;20022;-49
2022/07/19 07:26:07;;;;;;;4.28;2.75;;;26.20;57.70;;;26.48;37.57;97576.69;5004964;28;20539;-50
2022/07/19 07:28:32;;;;;;;4.97;2.90;;;26.30;57.50;;;26.60;37.17;97574.63;5002749;28;20034;-52
2022/07/19 07:30:58;;;;;;;4.00;2.80;;;26.40;57.30;;;26.67;37.36;97570.31;4997972;28;20074;-49
2022/07/19 07:33:24;;;;;;;5.28;2.65;;;26.50;57.90;;;26.74;37.40;97564.28;4997687;28;20398;-50
2022/07/19 07:35:49;;;;;;;4.63;2.35;;;26.50;57.60;;;26.85;37.48;97567.63;4996754;28;20037;-51
2022/07/19 07:38:15;;;;;;;3.90;2.50;;;26.60;57.50;;;26.98;37.29;97569.94;5002033;28;20173;-51
2022/07/19 07:40:41;;;;;;;5.07;2.67;;;26.70;57.30;;;27.10;37.22;97559.72;4998583;28;20038;-53
2022/07/19 07:43:07;;;;;;;3.97;2.50;;;26.90;56.50;;;27.19;36.74;97563.34;4997688;28;20038;-51
2022/07/19 07:45:33;;;;;;;4.65;2.95;;;27.00;56.50;;;27.28;36.28;97557.00;4997318;28;20049;-48
2022/07/19 07:47:59;;;;;;;6.28;2.90;;;27.00;56.50;;;27.37;36.58;97556.06;5004883;28;20159;-50
2022/07/19 07:50:26;;;;;;;5.80;2.95;;;27.20;56.80;;;27.50;36.35;97546.66;5004046;28;20026;-49
2022/07/19 07:52:52;;;;;;;4.85;2.40;;;27.30;56.90;;;27.62;36.50;97550.78;5004117;28;20111;-48
2022/07/19 07:55:17;;;;;;;6.55;2.78;;;27.40;56.80;;;27.69;35.31;97548.28;5004979;28;20489;-48
2022/07/19 07:57:43;;;;;;;5.25;2.80;;;27.50;55.70;;;27.78;35.50;97558.13;5000437;28;20083;-49
2022/07/19 08:00:12;;;;;;;5.50;2.72;;;27.50;55.20;;;27.87;34.35;97562.59;5000518;28;20045;-45
2022/07/19 08:02:46;;;;;;;5.93;3.00;;;27.60;54.20;;;27.86;34.54;97549.22;5001321;28;20126;-47
2022/07/19 08:05:12;;;;;;;3.17;2.17;;;27.70;54.60;;;27.97;34.41;97555.22;4995433;28;20509;-47
2022/07/19 08:07:38;;;;;;;4.13;2.50;;;27.70;53.80;;;28.05;33.49;97558.97;5004762;28;20026;-47
2022/07/19 08:10:07;;;;;;;3.13;2.33;;;27.80;53.30;;;28.12;33.64;97555.47;5000267;28;20065;-45
2022/07/19 08:12:33;;;;;;;3.65;2.17;;;27.80;52.90;;;28.23;32.89;97553.44;5000112;28;20030;-48
2022/07/19 08:14:59;;;;;;;4.20;2.50;;;28.00;52.10;;;28.32;32.78;97557.91;4998133;28;20498;-46
2022/07/19 08:17:25;;;;;;;2.83;1.85;;;28.00;52.10;;;28.37;31.31;97550.09;5000859;28;20136;-46
2022/07/19 08:19:50;;;;;;;2.90;2.00;;;28.10;50.10;;;28.43;31.33;97544.03;4997499;28;20026;-45
2022/07/19 08:22:18;;;;;;;2.10;1.90;;;28.30;50.70;;;28.61;31.01;97552.06;4998812;28;20417;-48
2022/07/19 08:24:45;;;;;;;2.55;2.15;;;28.30;50.10;;;28.69;30.33;97546.63;4995757;28;20109;-47
2022/07/19 08:27:11;;;;;;;2.65;1.90;;;28.50;49.30;;;28.84;30.66;97552.25;5002449;28;20045;-45
2022/07/19 08:29:36;;;;;;;5.43;1.77;;;28.50;49.10;;;29.01;29.66;97544.13;4998486;28;20044;-47
2022/07/19 08:32:02;;;;;;;2.53;1.90;;;28.70;48.50;;;29.12;28.91;97549.19;5004527;28;20030;-46
2022/07/19 08:34:28;;;;;;;4.22;1.83;;;28.90;47.30;;;29.16;28.91;97549.75;5005499;28;20516;-47
2022/07/19 08:36:54;;;;;;;3.28;1.90;;;28.90;46.90;;;29.19;29.29;97539.38;5001491;28;20116;-46
2022/07/19 08:39:19;;;;;;;2.88;1.90;;;29.00;47.60;;;29.30;29.02;97546.31;4998594;28;20125;-48
2022/07/19 08:41:46;;;;;;;2.95;2.30;;;29.00;47.30;;;29.37;28.14;97544.63;4998969;28;20034;-46
2022/07/19 08:44:12;;;;;;;3.47;2.00;;;29.20;46.50;;;29.44;28.20;97542.91;4999982;28;20621;-46
2022/07/19 08:46:41;;;;;;;2.38;1.70;;;29.20;46.40;;;29.53;28.05;97541.03;4998041;28;20049;-49
2022/07/19 08:49:10;;;;;;;7.75;1.90;;;29.30;46.20;;;29.56;28.19;97539.81;5003168;28;20292;-46
2022/07/19 08:51:37;;;;;;;2.60;1.70;;;29.30;45.90;;;29.64;27.77;97545.25;4998829;28;20108;-46
2022/07/19 08:54:03;;;;;;;2.17;1.73;;;29.40;46.00;;;29.69;27.91;97548.28;4996067;28;20025;-46
2022/07/19 08:59:13;;;;;;;1.88;1.73;;;29.50;45.90;;;29.80;29.84;97538.94;4996535;28;20537;-50
2022/07/19 09:01:39;;;;;;;2.53;1.80;;;29.60;47.00;;;29.84;30.26;97535.72;4998138;28;20030;-48
2022/07/19 09:04:17;;;;;;;2.20;1.90;;;29.60;47.60;;;29.80;29.92;97547.94;4996970;28;20525;-47
2022/07/19 09:06:50;;;;;;;3.00;1.85;;;29.50;48.50;;;29.65;29.19;97542.34;4998662;28;20324;-46
2022/07/19 09:09:21;;;;;;;4.88;2.00;;;29.40;48.00;;;29.65;30.58;97539.66;4998133;28;20034;-47
2022/07/19 09:11:52;;;;;;;3.10;1.95;;;29.30;47.90;;;29.64;28.28;97545.25;4996726;28;20018;-47
2022/07/19 09:14:23;;;;;;;4.22;1.85;;;29.30;46.50;;;29.77;28.86;97550.16;4999838;28;20045;-48
2022/07/19 09:16:54;;;;;;;3.13;1.70;;;29.40;47.40;;;29.83;30.44;97546.75;5000059;28;20050;-48
2022/07/19 09:19:20;;;;;;;2.85;2.00;;;29.50;46.90;;;29.91;29.14;97541.28;5003658;28;20493;-45
2022/07/19 09:21:53;;;;;;;3.45;1.80;;;29.60;47.30;;;29.95;30.05;97541.78;4997654;28;20064;-47
2022/07/19 09:24:20;;;;;;;2.78;2.05;;;29.60;49.10;;;29.93;30.03;97539.22;4995366;28;20037;-46
2022/07/19 09:26:58;;;;;;;3.10;2.13;;;29.70;47.80;;;29.97;28.32;97535.16;5001692;28;20022;-48
2022/07/19 09:29:25;;;;;;;2.67;2.15;;;29.70;46.90;;;30.02;27.70;97531.88;4998044;28;20022;-47
2022/07/19 09:32:17;;;;;;;2.85;2.20;;;29.70;46.10;;;30.10;30.19;97537.31;5001718;28;20033;-50
2022/07/19 09:35:03;;;;;;;3.90;2.45;;;29.80;46.50;;;30.15;28.74;97537.63;4998785;28;20026;-50
2022/07/19 09:37:34;;;;;;;5.35;2.30;;;29.80;46.40;;;30.14;27.62;97537.78;5001075;28;20363;-48
2022/07/19 09:40:03;;;;;;;2.38;2.13;;;29.90;45.00;;;30.23;27.40;97540.28;5003168;28;20077;-52
2022/07/19 09:42:42;;;;;;;4.10;2.20;;;29.90;45.00;;;30.34;27.79;97530.91;4999085;28;20029;-51
2022/07/19 09:45:12;;;;;;;3.58;2.47;;;30.00;44.80;;;30.39;26.66;97538.53;5002873;28;20113;-50
2022/07/19 09:47:43;;;;;;;3.22;2.50;;;30.10;44.10;;;30.44;26.81;97531.53;5001859;28;20390;-50
2022/07/19 09:50:16;;;;;;;6.10;2.65;;;30.20;44.80;;;30.54;25.96;97525.84;5005111;28;20026;-49
2022/07/19 09:52:47;;;;;;;5.80;2.15;;;30.20;44.10;;;30.72;26.48;97525.56;4998646;28;21931;-50
2022/07/19 09:55:15;;;;;;;7.35;2.85;;;30.40;43.40;;;30.81;25.49;97518.19;4996465;28;20042;-50
2022/07/19 09:57:45;;;;;;;3.08;2.22;;;30.50;42.70;;;30.84;25.80;97534.16;5041865;23;20037;-38
2022/07/19 10:00:13;;;;;;;3.50;2.38;;;30.60;42.90;;;30.78;25.70;97524.00;5035408;28;20120;-38
2022/07/19 10:02:43;;;;;;;4.18;2.63;;;30.50;42.60;;;30.82;25.26;97528.03;5044140;28;20374;-38
2022/07/19 10:05:11;;;;;;;7.70;3.30;;;30.50;42.40;;;30.83;25.60;97510.66;5042921;28;20059;-38
2022/07/19 10:07:37;;;;;;;4.10;2.50;;;30.60;42.70;;;30.88;25.00;97513.69;5024713;28;20834;-38
2022/07/19 10:10:05;;;;;;;3.35;2.25;;;30.60;41.60;;;30.97;25.30;97518.06;5026761;28;20048;-38
2022/07/19 10:12:32;;;;;;;6.15;2.58;;;30.70;42.00;;;31.09;25.35;97513.03;5022983;28;20095;-39
2022/07/19 10:14:58;;;;;;;4.53;2.90;;;30.70;42.40;;;31.13;24.82;97503.47;5021026;28;20474;-39
2022/07/19 10:17:55;;;;;;;5.80;2.72;;;30.90;42.30;;;31.16;24.75;97514.00;5022720;28;20040;-39
2022/07/19 10:20:23;;;;;;;4.47;2.65;;;30.90;41.30;;;31.17;25.56;97504.81;5021526;28;20037;-39
2022/07/19 10:22:52;;;;;;;3.85;2.47;;;30.90;42.80;;;31.23;25.73;97503.22;5016957;28;20111;-39
2022/07/19 10:25:18;;;;;;;4.03;2.70;;;31.00;43.40;;;31.36;24.36;97503.41;5018825;28;20034;-39